Jamie Marie — WDE7178 — position and weather

sailwx.info

Track history (hours):
 
Tides and Currents Weather Stations Pressure Air Temp Water Temp Dewpoint Dewpoint Depression Visibility Wind Speed Wind Dir Waves Ship Positions

Jamie Marie

Owner: Jamie Marie, Inc., Aberdeen, WA. More information available from US FCC via Universal Licensing System and Coast Guard Vessel Documentation Center.

Last reported at 2018-Jul-18 21:59 UTC. Time now 2018-Jul-18 22:10 UTC.
Position N 46°54' W 124°06'.

Length 30 m.

Type: Fishing. MMSI: 366425240.

Date/timePositionNaut miles runAvg speedWind from/ knotsBaromVisibWave heightAir tempDewpointWater temp
2018-Jul-18 21:59N 46°54' W 124°06'0 0.0
2018-Jul-18 21:31N 46°54' W 124°06'0 0.0
2018-Jul-18 01:53N 46°54' W 124°06'0 0.0
2018-Jul-18 00:13N 46°54' W 124°06'0 0.0
2018-Jul-17 23:53N 46°54' W 124°06'0 0.0
2018-Jul-17 23:28N 46°54' W 124°06'0 0.1
2018-Jul-17 23:00N 46°54' W 124°06'2 3.2
2018-Jul-17 22:30N 46°55' W 124°09'4 8.0
2018-Jul-17 22:00N 46°56' W 124°14'4 8.0
2018-Jul-17 21:30N 46°59' W 124°18'4 7.7
2018-Jul-17 21:00N 47°02' W 124°22'38 6.3
2018-Jul-17 14:52N 47°31' W 124°59'1 2.8
2018-Jul-17 14:20N 47°32' W 124°60'2 2.1
2018-Jul-17 13:15N 47°31' W 124°57'2 4.2
2018-Jul-17 12:53N 47°29' W 124°57'2 3.3
2018-Jul-17 12:14N 47°28' W 124°59'0 0.9
2018-Jul-17 11:49N 47°28' W 124°59'0 0.9
2018-Jul-17 11:23N 47°29' W 124°60'1 0.8
2018-Jul-17 10:15N 47°30' W 125°00'0 0.9
2018-Jul-17 09:58N 47°30' W 125°01'1 1.1
2018-Jul-17 09:00N 47°31' W 125°02'2 0.6
2018-Jul-17 06:23N 47°32' W 125°03'0 0.2
2018-Jul-17 05:51N 47°32' W 125°03'1 2.0
2018-Jul-17 05:27N 47°31' W 125°02'1 2.3
2018-Jul-17 04:58N 47°30' W 125°01'1 2.6
2018-Jul-17 04:30N 47°30' W 124°59'2 3.1
2018-Jul-17 04:00N 47°29' W 124°58'2 2.9
2018-Jul-17 03:28N 47°28' W 124°56'3 0.3
2018-Jul-16 16:53N 47°28' W 124°52'1 2.5
2018-Jul-16 16:30N 47°28' W 124°53'2 2.9
2018-Jul-16 15:46N 47°29' W 124°56'2 5.6
2018-Jul-16 15:28N 47°28' W 124°53'4 7.5
2018-Jul-16 14:58N 47°26' W 124°49'2 3.8
2018-Jul-16 14:30N 47°27' W 124°50'4 6.7
2018-Jul-16 13:51N 47°24' W 124°47'3 6.7
2018-Jul-16 13:27N 47°21' W 124°46'3 6.5
2018-Jul-16 12:59N 47°18' W 124°46'4 7.3
2018-Jul-16 12:30N 47°15' W 124°42'4 7.4
2018-Jul-16 11:57N 47°12' W 124°38'3 7.3
2018-Jul-16 11:30N 47°10' W 124°35'4 7.2
2018-Jul-16 11:00N 47°08' W 124°31'7 7.3
2018-Jul-16 10:05N 47°03' W 124°24'1 7.5
2018-Jul-16 09:56N 47°02' W 124°23'3 7.4
2018-Jul-16 09:30N 46°60' W 124°20'3 7.0
2018-Jul-16 09:00N 46°57' W 124°17'3 6.9
2018-Jul-16 08:30N 46°55' W 124°12'3 5.7
2018-Jul-16 08:00N 46°55' W 124°08'1 2.9
2018-Jul-16 07:30N 46°54' W 124°06'0 0.0
2018-Jul-16 07:00N 46°54' W 124°06'0 0.0
2018-Jul-16 06:30N 46°54' W 124°06'0 0.1
2018-Jul-16 06:00N 46°54' W 124°06'0 0.0
2018-Jul-16 05:30N 46°54' W 124°06'0 0.0
2018-Jul-16 05:00N 46°54' W 124°06'0 0.0
2018-Jul-16 04:30N 46°54' W 124°06'0 0.0
2018-Jul-16 04:00N 46°54' W 124°06'0 0.0
2018-Jul-16 03:30N 46°54' W 124°06'0 0.0
2018-Jul-16 02:58N 46°54' W 124°06'0 0.0
2018-Jul-16 02:27N 46°54' W 124°06'0 0.0
2018-Jul-16 02:00N 46°54' W 124°06'0 0.0
2018-Jul-16 01:30N 46°54' W 124°06'0 0.0
2018-Jul-16 01:00N 46°54' W 124°06'0 0.0
2018-Jul-16 00:24N 46°54' W 124°06'0 0.0
2018-Jul-16 00:00N 46°54' W 124°06'0 0.0
2018-Jul-15 23:30N 46°54' W 124°06'0 0.0
2018-Jul-15 23:00N 46°54' W 124°06'0 0.0
2018-Jul-15 22:30N 46°54' W 124°06'0 0.0
2018-Jul-15 22:00N 46°54' W 124°06'0 0.0
2018-Jul-15 21:30N 46°54' W 124°06'0 0.0
2018-Jul-15 21:00N 46°54' W 124°06'0 0.0
2018-Jul-15 20:30N 46°54' W 124°06'0 0.0
2018-Jul-15 20:00N 46°54' W 124°06'0 0.0
2018-Jul-15 19:30N 46°54' W 124°06'0 0.0
2018-Jul-15 19:00N 46°54' W 124°06'0 0.0
2018-Jul-15 18:30N 46°54' W 124°06'0 0.1
2018-Jul-15 17:57N 46°54' W 124°06'0 0.0
2018-Jul-15 17:30N 46°54' W 124°06'0 0.0
2018-Jul-15 16:58N 46°54' W 124°06'0 0.0
2018-Jul-15 16:29N 46°54' W 124°06'0 0.0
2018-Jul-15 16:00N 46°54' W 124°06'0 0.0
2018-Jul-15 15:30N 46°54' W 124°06'0 0.0
2018-Jul-15 14:59N 46°54' W 124°06'0 0.0
2018-Jul-15 14:30N 46°54' W 124°06'0 0.1
2018-Jul-15 13:58N 46°54' W 124°06'0 0.0
2018-Jul-15 13:29N 46°54' W 124°06'0 0.0
2018-Jul-15 13:00N 46°54' W 124°06'0 0.0
2018-Jul-15 12:30N 46°54' W 124°06'0 0.0
2018-Jul-15 11:59N 46°54' W 124°06'0 0.0
2018-Jul-15 11:30N 46°54' W 124°06'0 0.0
2018-Jul-15 11:00N 46°54' W 124°06'0 0.0
2018-Jul-15 10:28N 46°54' W 124°06'0 0.0
2018-Jul-15 10:00N 46°54' W 124°06'0 0.0
2018-Jul-15 09:30N 46°54' W 124°06'0 0.0
2018-Jul-15 09:00N 46°54' W 124°06'0 0.0
2018-Jul-15 08:30N 46°54' W 124°06'0 0.0
2018-Jul-15 07:57N 46°54' W 124°06'0 0.0
2018-Jul-15 07:30N 46°54' W 124°06'0 0.0
2018-Jul-15 06:58N 46°54' W 124°06'0 0.0
2018-Jul-15 06:30N 46°54' W 124°06'0 0.0
2018-Jul-15 06:00N 46°54' W 124°06'0 0.0
2018-Jul-15 05:29N 46°54' W 124°06'0 0.0
2018-Jul-15 04:37N 46°54' W 124°06'0 0.0
2018-Jul-15 04:28N 46°54' W 124°06'0 0.0
2018-Jul-15 03:46N 46°54' W 124°06'0 0.0
2018-Jul-15 03:30N 46°54' W 124°06'0 0.0
2018-Jul-15 03:00N 46°54' W 124°06'1 2.9
2018-Jul-15 02:30N 46°55' W 124°08'3 5.5
2018-Jul-15 02:00N 46°55' W 124°12'4 7.5
2018-Jul-15 01:30N 46°57' W 124°17'4 8.0
2018-Jul-15 01:00N 47°00' W 124°21'4 8.1
2018-Jul-15 00:31N 47°03' W 124°25'4 7.9
2018-Jul-14 23:59N 47°06' W 124°29'7 8.5
2018-Jul-14 23:13N 47°10' W 124°36'2 8.7
2018-Jul-14 23:00N 47°12' W 124°38'4 8.5
2018-Jul-14 22:30N 47°15' W 124°42'3 5.6
2018-Jul-14 22:00N 47°17' W 124°45'1 2.9
2018-Jul-14 21:30N 47°19' W 124°45'1 1.6
2018-Jul-14 21:00N 47°20' W 124°45'0 0.4
2018-Jul-14 20:30N 47°20' W 124°45'2 3.0
2018-Jul-14 20:00N 47°18' W 124°44'25 5.7
2018-Jul-14 15:39N 46°60' W 124°20'1 8.3
2018-Jul-14 15:30N 46°59' W 124°19'4 8.1
2018-Jul-14 15:00N 46°56' W 124°15'6 3.3
2018-Jul-14 13:13N 46°54' W 124°06'0 0.0
2018-Jul-14 12:59N 46°54' W 124°06'0 0.0
2018-Jul-14 12:25N 46°54' W 124°06'0 0.0
2018-Jul-14 11:59N 46°54' W 124°06'0 0.0
2018-Jul-14 11:24N 46°54' W 124°06'0 0.0
2018-Jul-14 10:49N 46°54' W 124°06'0 0.0
2018-Jul-14 10:16N 46°54' W 124°06'0 0.0
2018-Jul-14 10:00N 46°54' W 124°06'0 0.0
2018-Jul-14 08:56N 46°54' W 124°06'0 0.0
2018-Jul-14 08:29N 46°54' W 124°06'0 0.0
2018-Jul-14 08:00N 46°54' W 124°06'0 0.0
2018-Jul-14 07:28N 46°54' W 124°06'0 0.0
2018-Jul-14 00:08N 46°54' W 124°06'0 0.6
2018-Jul-13 23:47N 46°55' W 124°07'0 0.1
2018-Jul-13 23:29N 46°55' W 124°07'0 0.3
2018-Jul-13 22:50N 46°55' W 124°06'2 5.5
2018-Jul-13 22:30N 46°55' W 124°09'3 6.9
2018-Jul-13 22:00N 46°56' W 124°14'4 8.3
2018-Jul-13 21:31N 46°59' W 124°18'15 8.3
2018-Jul-13 19:41N 47°09' W 124°34'2 8.4
2018-Jul-13 19:27N 47°11' W 124°36'5 8.4
2018-Jul-13 18:54N 47°14' W 124°41'4 8.2
2018-Jul-13 18:23N 47°17' W 124°46'10 2.0
2018-Jul-13 13:25N 47°27' W 124°49'7 2.5
2018-Jul-13 10:31N 47°31' W 124°57'0 3.0
2018-Jul-13 10:30N 47°31' W 124°58'34 1.0
2018-Jul-12 01:15N 48°02' W 125°19'5 7.5
2018-Jul-12 00:31N 47°58' W 125°14'1 7.9
2018-Jul-12 00:25N 47°57' W 125°14'5 8.0
2018-Jul-11 23:50N 47°52' W 125°12'5 8.1
2018-Jul-11 23:16N 47°48' W 125°10'14 7.4
2018-Jul-11 21:20N 47°34' W 125°05'25 7.2
2018-Jul-11 17:55N 47°12' W 124°50'4 7.9
2018-Jul-11 17:22N 47°08' W 124°47'3 7.7
2018-Jul-11 17:00N 47°06' W 124°45'4 7.3
2018-Jul-11 16:30N 47°02' W 124°45'3 5.3
2018-Jul-11 15:55N 47°02' W 124°40'1 3.0
2018-Jul-11 15:30N 47°01' W 124°39'1 2.2
2018-Jul-11 14:58N 47°02' W 124°40'1 2.3
2018-Jul-11 14:30N 47°01' W 124°39'2 4.5
2018-Jul-11 14:00N 46°59' W 124°38'0 0.3
2018-Jul-11 13:30N 46°59' W 124°38'3 6.6
2018-Jul-11 13:00N 46°58' W 124°33'3 6.5
2018-Jul-11 12:31N 46°58' W 124°29'3 6.7
2018-Jul-11 12:01N 46°57' W 124°24'3 6.9
2018-Jul-11 11:30N 46°56' W 124°19'4 7.5
2018-Jul-11 11:00N 46°55' W 124°14'5 7.3
2018-Jul-11 10:19N 46°54' W 124°06'0 0.0
2018-Jul-11 10:00N 46°54' W 124°06'0 0.0
2018-Jul-11 09:30N 46°54' W 124°06'0 0.0
2018-Jul-11 09:00N 46°54' W 124°06'0 0.0
2018-Jul-11 08:30N 46°54' W 124°06'0 0.0
2018-Jul-11 07:52N 46°54' W 124°06'0 0.0
2018-Jul-11 07:29N 46°54' W 124°06'0 0.0
2018-Jul-11 06:59N 46°54' W 124°06'0 0.0
2018-Jul-11 06:30N 46°54' W 124°06'0 0.0
2018-Jul-11 06:00N 46°54' W 124°06'0 0.0
2018-Jul-11 05:30N 46°54' W 124°06'0 0.0
2018-Jul-11 05:00N 46°54' W 124°06'0 0.0
2018-Jul-11 04:30N 46°54' W 124°06'0 0.0
2018-Jul-11 04:00N 46°54' W 124°06'0 0.0
2018-Jul-11 03:30N 46°54' W 124°06'0 0.0
2018-Jul-11 03:00N 46°54' W 124°06'0 0.0
2018-Jul-11 02:30N 46°54' W 124°06'0 0.0
2018-Jul-11 01:57N 46°54' W 124°06'0 0.0
2018-Jul-11 01:30N 46°54' W 124°06'0 0.0
2018-Jul-11 00:58N 46°54' W 124°06'0 0.0
2018-Jul-11 00:26N 46°54' W 124°06'0 0.0
2018-Jul-11 00:00N 46°54' W 124°06'0 0.0
2018-Jul-10 23:27N 46°54' W 124°06'0 0.0
2018-Jul-10 23:00N 46°54' W 124°06'0 0.0
2018-Jul-10 22:27N 46°54' W 124°06'0 0.0
2018-Jul-10 21:55N 46°54' W 124°06'0 0.0
2018-Jul-10 20:48N 46°54' W 124°06'0 0.0
2018-Jul-10 18:31N 46°54' W 124°06'0 0.7
2018-Jul-10 18:27N 46°54' W 124°06'0 0.0
2018-Jul-10 18:00N 46°54' W 124°06'0 0.0
2018-Jul-10 17:18N 46°54' W 124°06'0 0.0
2018-Jul-10 13:31N 46°54' W 124°06'0 0.0
2018-Jul-10 13:14N 46°54' W 124°06'0 0.0
2018-Jul-10 11:36N 46°54' W 124°06'0 0.0
2018-Jul-10 11:28N 46°54' W 124°06'0 0.0
2018-Jul-10 10:51N 46°54' W 124°06'0 0.0
2018-Jul-10 08:42N 46°54' W 124°06'0 0.0
2018-Jul-10 08:26N 46°54' W 124°06'0 0.0
2018-Jul-10 07:37N 46°54' W 124°06'0 2.0
2018-Jul-10 07:24N 46°55' W 124°07'2 4.0
2018-Jul-10 06:59N 46°55' W 124°09'3 5.7
2018-Jul-10 06:30N 46°55' W 124°13'3 6.8
2018-Jul-10 06:00N 46°57' W 124°17'4 7.6
2018-Jul-10 05:30N 46°60' W 124°21'1 0.0
2018-Jul-09 08:34N 47°00' W 124°20'1 7.8
2018-Jul-09 08:30N 46°60' W 124°20'4 7.5
2018-Jul-09 08:00N 46°57' W 124°16'7 8.5
2018-Jul-09 07:13N 46°55' W 124°07'1 2.7
2018-Jul-09 06:59N 46°54' W 124°06'0 0.0
2018-Jul-09 06:30N 46°54' W 124°06'0 0.0
2018-Jul-09 05:23N 46°54' W 124°06'0 0.0
2018-Jul-09 04:57N 46°54' W 124°06'0 0.0
2018-Jul-09 04:19N 46°54' W 124°06'0 0.0
2018-Jul-09 03:56N 46°54' W 124°06'0 0.0
2018-Jul-09 03:28N 46°54' W 124°06'0 0.0
2018-Jul-09 02:55N 46°54' W 124°06'0 0.1
2018-Jul-09 02:18N 46°54' W 124°06'0 0.0
2018-Jul-09 01:56N 46°54' W 124°06'0 0.0
2018-Jul-09 01:30N 46°54' W 124°06'0 0.0
2018-Jul-09 00:59N 46°54' W 124°06'0 0.0
2018-Jul-09 00:30N 46°54' W 124°06'0 0.0
2018-Jul-09 00:00N 46°54' W 124°06'0 0.0
2018-Jul-08 23:29N 46°54' W 124°06'0 0.0
2018-Jul-08 23:00N 46°54' W 124°06'0 0.0
2018-Jul-08 22:29N 46°54' W 124°06'  
Track history (hours):
 
Tides and Currents Weather Stations Pressure Air Temp Water Temp Dewpoint Dewpoint Depression Visibility Wind Speed Wind Dir Waves Ship Positions

Jamie Marie

Owner: Jamie Marie, Inc., Aberdeen, WA. More information available from US FCC via Universal Licensing System and Coast Guard Vessel Documentation Center.

Last reported at 2018-Jul-18 21:59 UTC. Time now 2018-Jul-18 22:10 UTC.
Position N 46°54' W 124°06'.

Length 30 m.

Type: Fishing. MMSI: 366425240.

Date/timePositionNaut miles runAvg speedWind from/ knotsBaromVisibWave heightAir tempDewpointWater temp
2018-Jul-18 21:59N 46°54' W 124°06'0 0.0
2018-Jul-18 21:31N 46°54' W 124°06'0 0.0
2018-Jul-18 01:53N 46°54' W 124°06'0 0.0
2018-Jul-18 00:13N 46°54' W 124°06'0 0.0
2018-Jul-17 23:53N 46°54' W 124°06'0 0.0
2018-Jul-17 23:28N 46°54' W 124°06'0 0.1
2018-Jul-17 23:00N 46°54' W 124°06'2 3.2
2018-Jul-17 22:30N 46°55' W 124°09'4 8.0
2018-Jul-17 22:00N 46°56' W 124°14'4 8.0
2018-Jul-17 21:30N 46°59' W 124°18'4 7.7
2018-Jul-17 21:00N 47°02' W 124°22'38 6.3
2018-Jul-17 14:52N 47°31' W 124°59'1 2.8
2018-Jul-17 14:20N 47°32' W 124°60'2 2.1
2018-Jul-17 13:15N 47°31' W 124°57'2 4.2
2018-Jul-17 12:53N 47°29' W 124°57'2 3.3
2018-Jul-17 12:14N 47°28' W 124°59'0 0.9
2018-Jul-17 11:49N 47°28' W 124°59'0 0.9
2018-Jul-17 11:23N 47°29' W 124°60'1 0.8
2018-Jul-17 10:15N 47°30' W 125°00'0 0.9
2018-Jul-17 09:58N 47°30' W 125°01'1 1.1
2018-Jul-17 09:00N 47°31' W 125°02'2 0.6
2018-Jul-17 06:23N 47°32' W 125°03'0 0.2
2018-Jul-17 05:51N 47°32' W 125°03'1 2.0
2018-Jul-17 05:27N 47°31' W 125°02'1 2.3
2018-Jul-17 04:58N 47°30' W 125°01'1 2.6
2018-Jul-17 04:30N 47°30' W 124°59'2 3.1
2018-Jul-17 04:00N 47°29' W 124°58'2 2.9
2018-Jul-17 03:28N 47°28' W 124°56'3 0.3
2018-Jul-16 16:53N 47°28' W 124°52'1 2.5
2018-Jul-16 16:30N 47°28' W 124°53'2 2.9
2018-Jul-16 15:46N 47°29' W 124°56'2 5.6
2018-Jul-16 15:28N 47°28' W 124°53'4 7.5
2018-Jul-16 14:58N 47°26' W 124°49'2 3.8
2018-Jul-16 14:30N 47°27' W 124°50'4 6.7
2018-Jul-16 13:51N 47°24' W 124°47'3 6.7
2018-Jul-16 13:27N 47°21' W 124°46'3 6.5
2018-Jul-16 12:59N 47°18' W 124°46'4 7.3
2018-Jul-16 12:30N 47°15' W 124°42'4 7.4
2018-Jul-16 11:57N 47°12' W 124°38'3 7.3
2018-Jul-16 11:30N 47°10' W 124°35'4 7.2
2018-Jul-16 11:00N 47°08' W 124°31'7 7.3
2018-Jul-16 10:05N 47°03' W 124°24'1 7.5
2018-Jul-16 09:56N 47°02' W 124°23'3 7.4
2018-Jul-16 09:30N 46°60' W 124°20'3 7.0
2018-Jul-16 09:00N 46°57' W 124°17'3 6.9
2018-Jul-16 08:30N 46°55' W 124°12'3 5.7
2018-Jul-16 08:00N 46°55' W 124°08'1 2.9
2018-Jul-16 07:30N 46°54' W 124°06'0 0.0
2018-Jul-16 07:00N 46°54' W 124°06'0 0.0
2018-Jul-16 06:30N 46°54' W 124°06'0 0.1
2018-Jul-16 06:00N 46°54' W 124°06'0 0.0
2018-Jul-16 05:30N 46°54' W 124°06'0 0.0
2018-Jul-16 05:00N 46°54' W 124°06'0 0.0
2018-Jul-16 04:30N 46°54' W 124°06'0 0.0
2018-Jul-16 04:00N 46°54' W 124°06'0 0.0
2018-Jul-16 03:30N 46°54' W 124°06'0 0.0
2018-Jul-16 02:58N 46°54' W 124°06'0 0.0
2018-Jul-16 02:27N 46°54' W 124°06'0 0.0
2018-Jul-16 02:00N 46°54' W 124°06'0 0.0
2018-Jul-16 01:30N 46°54' W 124°06'0 0.0
2018-Jul-16 01:00N 46°54' W 124°06'0 0.0
2018-Jul-16 00:24N 46°54' W 124°06'0 0.0
2018-Jul-16 00:00N 46°54' W 124°06'0 0.0
2018-Jul-15 23:30N 46°54' W 124°06'0 0.0
2018-Jul-15 23:00N 46°54' W 124°06'0 0.0
2018-Jul-15 22:30N 46°54' W 124°06'0 0.0
2018-Jul-15 22:00N 46°54' W 124°06'0 0.0
2018-Jul-15 21:30N 46°54' W 124°06'0 0.0
2018-Jul-15 21:00N 46°54' W 124°06'0 0.0
2018-Jul-15 20:30N 46°54' W 124°06'0 0.0
2018-Jul-15 20:00N 46°54' W 124°06'0 0.0
2018-Jul-15 19:30N 46°54' W 124°06'0 0.0
2018-Jul-15 19:00N 46°54' W 124°06'0 0.0
2018-Jul-15 18:30N 46°54' W 124°06'0 0.1
2018-Jul-15 17:57N 46°54' W 124°06'0 0.0
2018-Jul-15 17:30N 46°54' W 124°06'0 0.0
2018-Jul-15 16:58N 46°54' W 124°06'0 0.0
2018-Jul-15 16:29N 46°54' W 124°06'0 0.0
2018-Jul-15 16:00N 46°54' W 124°06'0 0.0
2018-Jul-15 15:30N 46°54' W 124°06'0 0.0
2018-Jul-15 14:59N 46°54' W 124°06'0 0.0
2018-Jul-15 14:30N 46°54' W 124°06'0 0.1
2018-Jul-15 13:58N 46°54' W 124°06'0 0.0
2018-Jul-15 13:29N 46°54' W 124°06'0 0.0
2018-Jul-15 13:00N 46°54' W 124°06'0 0.0
2018-Jul-15 12:30N 46°54' W 124°06'0 0.0
2018-Jul-15 11:59N 46°54' W 124°06'0 0.0
2018-Jul-15 11:30N 46°54' W 124°06'0 0.0
2018-Jul-15 11:00N 46°54' W 124°06'0 0.0
2018-Jul-15 10:28N 46°54' W 124°06'0 0.0
2018-Jul-15 10:00N 46°54' W 124°06'0 0.0
2018-Jul-15 09:30N 46°54' W 124°06'0 0.0
2018-Jul-15 09:00N 46°54' W 124°06'0 0.0
2018-Jul-15 08:30N 46°54' W 124°06'0 0.0
2018-Jul-15 07:57N 46°54' W 124°06'0 0.0
2018-Jul-15 07:30N 46°54' W 124°06'0 0.0
2018-Jul-15 06:58N 46°54' W 124°06'0 0.0
2018-Jul-15 06:30N 46°54' W 124°06'0 0.0
2018-Jul-15 06:00N 46°54' W 124°06'0 0.0
2018-Jul-15 05:29N 46°54' W 124°06'0 0.0
2018-Jul-15 04:37N 46°54' W 124°06'0 0.0
2018-Jul-15 04:28N 46°54' W 124°06'0 0.0
2018-Jul-15 03:46N 46°54' W 124°06'0 0.0
2018-Jul-15 03:30N 46°54' W 124°06'0 0.0
2018-Jul-15 03:00N 46°54' W 124°06'1 2.9
2018-Jul-15 02:30N 46°55' W 124°08'3 5.5
2018-Jul-15 02:00N 46°55' W 124°12'4 7.5
2018-Jul-15 01:30N 46°57' W 124°17'4 8.0
2018-Jul-15 01:00N 47°00' W 124°21'4 8.1
2018-Jul-15 00:31N 47°03' W 124°25'4 7.9
2018-Jul-14 23:59N 47°06' W 124°29'7 8.5
2018-Jul-14 23:13N 47°10' W 124°36'2 8.7
2018-Jul-14 23:00N 47°12' W 124°38'4 8.5
2018-Jul-14 22:30N 47°15' W 124°42'3 5.6
2018-Jul-14 22:00N 47°17' W 124°45'1 2.9
2018-Jul-14 21:30N 47°19' W 124°45'1 1.6
2018-Jul-14 21:00N 47°20' W 124°45'0 0.4
2018-Jul-14 20:30N 47°20' W 124°45'2 3.0
2018-Jul-14 20:00N 47°18' W 124°44'25 5.7
2018-Jul-14 15:39N 46°60' W 124°20'1 8.3
2018-Jul-14 15:30N 46°59' W 124°19'4 8.1
2018-Jul-14 15:00N 46°56' W 124°15'6 3.3
2018-Jul-14 13:13N 46°54' W 124°06'0 0.0
2018-Jul-14 12:59N 46°54' W 124°06'0 0.0
2018-Jul-14 12:25N 46°54' W 124°06'0 0.0
2018-Jul-14 11:59N 46°54' W 124°06'0 0.0
2018-Jul-14 11:24N 46°54' W 124°06'0 0.0
2018-Jul-14 10:49N 46°54' W 124°06'0 0.0
2018-Jul-14 10:16N 46°54' W 124°06'0 0.0
2018-Jul-14 10:00N 46°54' W 124°06'0 0.0
2018-Jul-14 08:56N 46°54' W 124°06'0 0.0
2018-Jul-14 08:29N 46°54' W 124°06'0 0.0
2018-Jul-14 08:00N 46°54' W 124°06'0 0.0
2018-Jul-14 07:28N 46°54' W 124°06'0 0.0
2018-Jul-14 00:08N 46°54' W 124°06'0 0.6
2018-Jul-13 23:47N 46°55' W 124°07'0 0.1
2018-Jul-13 23:29N 46°55' W 124°07'0 0.3
2018-Jul-13 22:50N 46°55' W 124°06'2 5.5
2018-Jul-13 22:30N 46°55' W 124°09'3 6.9
2018-Jul-13 22:00N 46°56' W 124°14'4 8.3
2018-Jul-13 21:31N 46°59' W 124°18'15 8.3
2018-Jul-13 19:41N 47°09' W 124°34'2 8.4
2018-Jul-13 19:27N 47°11' W 124°36'5 8.4
2018-Jul-13 18:54N 47°14' W 124°41'4 8.2
2018-Jul-13 18:23N 47°17' W 124°46'10 2.0
2018-Jul-13 13:25N 47°27' W 124°49'7 2.5
2018-Jul-13 10:31N 47°31' W 124°57'0 3.0
2018-Jul-13 10:30N 47°31' W 124°58'34 1.0
2018-Jul-12 01:15N 48°02' W 125°19'5 7.5
2018-Jul-12 00:31N 47°58' W 125°14'1 7.9
2018-Jul-12 00:25N 47°57' W 125°14'5 8.0
2018-Jul-11 23:50N 47°52' W 125°12'5 8.1
2018-Jul-11 23:16N 47°48' W 125°10'14 7.4
2018-Jul-11 21:20N 47°34' W 125°05'25 7.2
2018-Jul-11 17:55N 47°12' W 124°50'4 7.9
2018-Jul-11 17:22N 47°08' W 124°47'3 7.7
2018-Jul-11 17:00N 47°06' W 124°45'4 7.3
2018-Jul-11 16:30N 47°02' W 124°45'3 5.3
2018-Jul-11 15:55N 47°02' W 124°40'1 3.0
2018-Jul-11 15:30N 47°01' W 124°39'1 2.2
2018-Jul-11 14:58N 47°02' W 124°40'1 2.3
2018-Jul-11 14:30N 47°01' W 124°39'2 4.5
2018-Jul-11 14:00N 46°59' W 124°38'0 0.3
2018-Jul-11 13:30N 46°59' W 124°38'3 6.6
2018-Jul-11 13:00N 46°58' W 124°33'3 6.5
2018-Jul-11 12:31N 46°58' W 124°29'3 6.7
2018-Jul-11 12:01N 46°57' W 124°24'3 6.9
2018-Jul-11 11:30N 46°56' W 124°19'4 7.5
2018-Jul-11 11:00N 46°55' W 124°14'5 7.3
2018-Jul-11 10:19N 46°54' W 124°06'0 0.0
2018-Jul-11 10:00N 46°54' W 124°06'0 0.0
2018-Jul-11 09:30N 46°54' W 124°06'0 0.0
2018-Jul-11 09:00N 46°54' W 124°06'0 0.0
2018-Jul-11 08:30N 46°54' W 124°06'0 0.0
2018-Jul-11 07:52N 46°54' W 124°06'0 0.0
2018-Jul-11 07:29N 46°54' W 124°06'0 0.0
2018-Jul-11 06:59N 46°54' W 124°06'0 0.0
2018-Jul-11 06:30N 46°54' W 124°06'0 0.0
2018-Jul-11 06:00N 46°54' W 124°06'0 0.0
2018-Jul-11 05:30N 46°54' W 124°06'0 0.0
2018-Jul-11 05:00N 46°54' W 124°06'0 0.0
2018-Jul-11 04:30N 46°54' W 124°06'0 0.0
2018-Jul-11 04:00N 46°54' W 124°06'0 0.0
2018-Jul-11 03:30N 46°54' W 124°06'0 0.0
2018-Jul-11 03:00N 46°54' W 124°06'0 0.0
2018-Jul-11 02:30N 46°54' W 124°06'0 0.0
2018-Jul-11 01:57N 46°54' W 124°06'0 0.0
2018-Jul-11 01:30N 46°54' W 124°06'0 0.0
2018-Jul-11 00:58N 46°54' W 124°06'0 0.0
2018-Jul-11 00:26N 46°54' W 124°06'0 0.0
2018-Jul-11 00:00N 46°54' W 124°06'0 0.0
2018-Jul-10 23:27N 46°54' W 124°06'0 0.0
2018-Jul-10 23:00N 46°54' W 124°06'0 0.0
2018-Jul-10 22:27N 46°54' W 124°06'0 0.0
2018-Jul-10 21:55N 46°54' W 124°06'0 0.0
2018-Jul-10 20:48N 46°54' W 124°06'0 0.0
2018-Jul-10 18:31N 46°54' W 124°06'0 0.7
2018-Jul-10 18:27N 46°54' W 124°06'0 0.0
2018-Jul-10 18:00N 46°54' W 124°06'0 0.0
2018-Jul-10 17:18N 46°54' W 124°06'0 0.0
2018-Jul-10 13:31N 46°54' W 124°06'0 0.0
2018-Jul-10 13:14N 46°54' W 124°06'0 0.0
2018-Jul-10 11:36N 46°54' W 124°06'0 0.0
2018-Jul-10 11:28N 46°54' W 124°06'0 0.0
2018-Jul-10 10:51N 46°54' W 124°06'0 0.0
2018-Jul-10 08:42N 46°54' W 124°06'0 0.0
2018-Jul-10 08:26N 46°54' W 124°06'0 0.0
2018-Jul-10 07:37N 46°54' W 124°06'0 2.0
2018-Jul-10 07:24N 46°55' W 124°07'2 4.0
2018-Jul-10 06:59N 46°55' W 124°09'3 5.7
2018-Jul-10 06:30N 46°55' W 124°13'3 6.8
2018-Jul-10 06:00N 46°57' W 124°17'4 7.6
2018-Jul-10 05:30N 46°60' W 124°21'1 0.0
2018-Jul-09 08:34N 47°00' W 124°20'1 7.8
2018-Jul-09 08:30N 46°60' W 124°20'4 7.5
2018-Jul-09 08:00N 46°57' W 124°16'7 8.5
2018-Jul-09 07:13N 46°55' W 124°07'1 2.7
2018-Jul-09 06:59N 46°54' W 124°06'0 0.0
2018-Jul-09 06:30N 46°54' W 124°06'0 0.0
2018-Jul-09 05:23N 46°54' W 124°06'0 0.0
2018-Jul-09 04:57N 46°54' W 124°06'0 0.0
2018-Jul-09 04:19N 46°54' W 124°06'0 0.0
2018-Jul-09 03:56N 46°54' W 124°06'0 0.0
2018-Jul-09 03:28N 46°54' W 124°06'0 0.0
2018-Jul-09 02:55N 46°54' W 124°06'0 0.1
2018-Jul-09 02:18N 46°54' W 124°06'0 0.0
2018-Jul-09 01:56N 46°54' W 124°06'0 0.0
2018-Jul-09 01:30N 46°54' W 124°06'0 0.0
2018-Jul-09 00:59N 46°54' W 124°06'0 0.0
2018-Jul-09 00:30N 46°54' W 124°06'0 0.0
2018-Jul-09 00:00N 46°54' W 124°06'0 0.0
2018-Jul-08 23:29N 46°54' W 124°06'0 0.0
2018-Jul-08 23:00N 46°54' W 124°06'0 0.0
2018-Jul-08 22:29N 46°54' W 124°06'  

Dump ship's entire track history